Time;durP1;ratioP1;P1;durP2;ratioP2;P2;SDS_P1;SDS_P2;PMS_P1;PMS_P2;Temp;Humidity;BMP_temperature;BMP_pressure;BME280_temperature;BME280_humidity;BME280_pressure;Samples;Min_cycle;Max_cycle;Signal;HPM_P1;HPM_P2
2021/05/05 00:01:50;;;;;;;;;1.00;1.00;;;;;21.27;16.67;97642.13;4961915;28;8825;-50
2021/05/05 00:04:16;;;;;;;;;2.00;2.00;;;;;21.24;16.68;97645.63;4979021;28;8825;-50
2021/05/05 00:06:41;;;;;;;;;2.00;2.00;;;;;21.23;16.59;97646.00;4976921;28;9562;-50
2021/05/05 00:09:06;;;;;;;;;2.00;2.00;;;;;21.27;16.62;97644.09;4974145;28;8803;-50
2021/05/05 00:11:32;;;;;;;;;1.75;1.75;;;;;21.26;16.46;97642.50;4966538;28;8792;-50
2021/05/05 00:13:57;;;;;;;;;1.00;1.00;;;;;21.24;16.61;97645.63;4955317;28;8817;-50
2021/05/05 00:16:22;;;;;;;;;1.00;1.00;;;;;21.23;16.42;97646.00;4953875;28;8861;-50
2021/05/05 00:18:47;;;;;;;;;1.00;1.00;;;;;21.24;16.42;97642.13;4982130;28;8933;-50
2021/05/05 00:21:13;;;;;;;;;1.00;1.00;;;;;21.23;16.49;97638.59;4979624;28;8787;-50
2021/05/05 00:23:38;;;;;;;;;1.00;1.00;;;;;21.23;16.39;97644.06;4978183;28;8872;-50
2021/05/05 00:26:03;;;;;;;;;2.00;2.00;;;;;21.24;16.47;97642.13;4983401;28;8823;-50
2021/05/05 00:28:29;;;;;;;;;1.25;1.25;;;;;21.23;16.47;97646.00;4980212;28;9551;-50
2021/05/05 00:30:54;;;;;;;;;1.25;1.25;;;;;21.21;16.45;97645.63;4964526;28;8798;-50
2021/05/05 00:33:19;;;;;;;;;1.75;1.75;;;;;21.23;16.36;97637.78;4966444;28;8805;-50
2021/05/05 00:35:45;;;;;;;;;1.00;1.00;;;;;21.22;16.58;97636.25;4962605;28;8955;-47
2021/05/05 00:38:10;;;;;;;;;1.00;1.00;;;;;21.22;16.34;97634.28;4971897;28;8811;-47
2021/05/05 00:40:36;;;;;;;;;1.25;1.25;;;;;21.25;16.24;97629.97;4984293;28;8909;-47
2021/05/05 00:43:01;;;;;;;;;1.20;1.20;;;;;21.23;16.40;97643.28;4980699;28;8851;-48
2021/05/05 00:45:27;;;;;;;;;2.00;2.00;;;;;21.21;16.61;97629.19;4981655;28;8838;-47
2021/05/05 00:47:52;;;;;;;;;1.75;1.75;;;;;21.21;16.31;97629.94;4982372;28;8812;-47
2021/05/05 00:50:18;;;;;;;;;1.25;1.25;;;;;21.21;16.26;97631.91;4981324;28;8808;-47
2021/05/05 00:52:44;;;;;;;;;2.00;2.00;;;;;21.22;16.35;97636.25;4976718;28;8757;-47
2021/05/05 00:55:10;;;;;;;;;1.00;1.00;;;;;21.23;16.14;97640.53;4962801;28;8907;-48
2021/05/05 00:57:37;;;;;;;;;1.20;1.20;;;;;21.22;16.10;97636.25;4965962;28;8789;-48
2021/05/05 01:00:05;;;;;;;;;1.60;1.60;;;;;21.19;16.15;97632.28;4966786;28;8820;-47
2021/05/05 01:02:31;;;;;;;;;1.00;1.00;;;;;21.20;16.19;97633.88;4975531;28;8876;-48
2021/05/05 01:04:57;;;;;;;;;1.00;1.00;;;;;21.19;16.17;97637.78;4972942;28;8762;-48
2021/05/05 01:07:22;;;;;;;;;2.00;2.00;;;;;21.20;16.21;97622.91;4959041;28;8830;-47
2021/05/05 01:09:48;;;;;;;;;2.00;2.00;;;;;21.17;16.12;97629.94;4986303;28;8810;-47
2021/05/05 01:12:15;;;;;;;;;1.25;1.00;;;;;21.16;16.07;97633.88;4963087;28;8800;-47
2021/05/05 01:14:40;;;;;;;;;2.20;2.20;;;;;21.15;15.97;97632.28;4965420;28;8859;-47
2021/05/05 01:17:07;;;;;;;;;2.00;2.00;;;;;21.16;15.93;97644.06;4970944;28;8806;-48
2021/05/05 01:19:33;;;;;;;;;2.00;2.00;;;;;21.17;15.93;97629.16;4978289;28;10093;-48
2021/05/05 01:21:58;;;;;;;;;1.00;1.00;;;;;21.16;15.83;97633.09;4984210;28;8811;-46
2021/05/05 01:24:24;;;;;;;;;2.00;2.00;;;;;21.15;15.84;97629.56;4970167;28;8820;-47
2021/05/05 01:26:49;;;;;;;;;2.00;2.00;;;;;21.14;16.23;97633.47;4974081;28;12240;-47
2021/05/05 01:29:14;;;;;;;;;1.00;1.00;;;;;21.14;16.23;97630.75;4980058;28;8775;-48
2021/05/05 01:31:40;;;;;;;;;1.00;1.00;;;;;21.15;16.01;97623.28;4985730;28;8913;-48
2021/05/05 01:34:05;;;;;;;;;2.00;1.00;;;;;21.12;15.94;97632.28;4987013;28;8849;-48
2021/05/05 01:36:34;;;;;;;;;1.00;1.00;;;;;21.11;15.85;97628.75;4983234;28;8833;-47
2021/05/05 01:39:00;;;;;;;;;2.00;2.00;;;;;21.12;16.00;97633.06;4976610;28;8912;-49
2021/05/05 01:41:26;;;;;;;;;1.75;1.75;;;;;21.12;15.96;97619.34;4980563;28;8928;-48
2021/05/05 01:43:51;;;;;;;;;1.20;1.20;;;;;21.10;16.05;97632.66;4982876;28;8779;-47
2021/05/05 01:46:18;;;;;;;;;1.00;1.00;;;;;21.11;15.86;97626.03;4984242;28;10174;-48
2021/05/05 01:48:44;;;;;;;;;1.00;1.00;;;;;21.10;16.02;97618.97;4984052;28;8929;-47
2021/05/05 01:51:10;;;;;;;;;1.80;1.80;;;;;21.09;16.15;97628.38;4982129;28;8856;-47
2021/05/05 01:53:35;;;;;;;;;1.00;1.00;;;;;21.16;16.09;97616.66;4978121;28;8823;-47
2021/05/05 01:56:01;;;;;;;;;1.00;1.00;;;;;21.22;16.27;97622.53;4979970;28;8817;-47
2021/05/05 01:58:26;;;;;;;;;2.00;2.00;;;;;21.27;17.31;97622.16;4983863;28;8826;-47
2021/05/05 02:00:52;;;;;;;;;2.00;2.00;;;;;21.23;18.03;97626.81;4987325;28;8912;-48
2021/05/05 02:03:17;;;;;;;;;1.50;1.50;;;;;21.16;18.54;97622.13;4985143;28;8803;-48
2021/05/05 02:05:43;;;;;;;;;2.75;2.75;;;;;21.04;19.03;97626.00;4975436;28;8783;-47
2021/05/05 02:08:08;;;;;;;;;1.75;1.75;;;;;20.95;19.55;97615.41;4986677;28;8785;-47
2021/05/05 02:10:33;;;;;;;;;2.00;1.50;;;;;20.85;19.77;97615.38;4979849;28;8797;-47
2021/05/05 02:12:59;;;;;;;;;2.00;2.00;;;;;20.79;20.33;97610.25;4977307;28;9562;-47
2021/05/05 02:15:24;;;;;;;;;2.00;2.00;;;;;20.73;20.31;97611.00;4976486;28;9580;-48
2021/05/05 02:17:51;;;;;;;;;1.25;1.25;;;;;20.64;20.49;97608.63;4985053;28;8814;-47
2021/05/05 02:20:19;;;;;;;;;2.60;2.00;;;;;20.62;20.75;97608.22;4982828;28;8873;-47
2021/05/05 02:22:46;;;;;;;;;2.00;2.00;;;;;20.73;19.68;97595.34;4984076;28;8773;-47
2021/05/05 02:25:12;;;;;;;;;2.00;2.00;;;;;20.86;19.04;97604.03;4984968;28;9971;-48
2021/05/05 02:27:39;;;;;;;;;2.00;2.00;;;;;20.90;18.50;97599.34;4982797;28;8795;-50
2021/05/05 02:30:08;;;;;;;;;2.00;2.00;;;;;20.90;18.45;97598.56;4985720;28;8787;-49
2021/05/05 02:32:35;;;;;;;;;1.00;1.00;;;;;20.83;18.33;97598.53;4985047;28;8783;-50
2021/05/05 02:35:00;;;;;;;;;2.00;2.00;;;;;20.77;17.93;97590.69;4982380;28;8791;-50
2021/05/05 02:37:26;;;;;;;;;2.00;2.00;;;;;20.75;17.65;97586.75;4988804;28;8838;-50
2021/05/05 02:39:52;;;;;;;;;1.00;1.00;;;;;20.74;17.80;97587.94;4985296;28;8821;-50
2021/05/05 02:42:19;;;;;;;;;3.00;3.00;;;;;20.70;17.66;97585.19;4979838;28;8810;-50
2021/05/05 02:44:48;;;;;;;;;2.00;2.00;;;;;20.69;17.61;97580.88;4980902;28;8828;-50
2021/05/05 02:47:14;;;;;;;;;2.00;2.00;;;;;20.69;17.38;97580.09;4983127;28;8810;-50
2021/05/05 02:49:40;;;;;;;;;2.00;2.00;;;;;20.70;17.37;97576.16;4984838;28;8802;-50
2021/05/05 02:52:05;;;;;;;;;2.00;2.00;;;;;20.71;17.36;97589.47;4980752;28;8826;-50
2021/05/05 02:54:32;;;;;;;;;2.00;2.00;;;;;20.70;17.33;97574.22;4982498;28;8822;-49
2021/05/05 02:56:58;;;;;;;;;1.00;1.00;;;;;20.71;17.19;97573.03;4984726;28;10404;-50
2021/05/05 02:59:26;;;;;;;;;1.00;1.00;;;;;20.71;16.95;97581.25;4975985;28;8884;-50
2021/05/05 03:01:53;;;;;;;;;2.00;2.00;;;;;20.69;17.09;97572.66;4965380;28;8789;-50
2021/05/05 03:04:18;;;;;;;;;1.60;1.60;;;;;20.72;16.89;97566.41;4962433;28;8782;-49
2021/05/05 03:06:44;;;;;;;;;1.25;1.25;;;;;20.71;16.85;97578.53;4967384;28;8827;-50
2021/05/05 03:09:12;;;;;;;;;2.00;2.00;;;;;20.70;16.83;97568.75;4960690;28;8802;-50
2021/05/05 03:11:37;;;;;;;;;2.00;2.00;;;;;20.71;16.71;97569.53;4974860;28;8864;-50
2021/05/05 03:14:03;;;;;;;;;1.75;1.75;;;;;20.71;16.62;97573.03;4973922;28;8785;-50
2021/05/05 03:16:28;;;;;;;;;2.00;2.00;;;;;20.73;16.65;97569.91;4963053;28;9471;-50
2021/05/05 03:18:54;;;;;;;;;2.00;2.00;;;;;20.74;16.75;97553.09;4963236;28;12201;-50
2021/05/05 03:21:19;;;;;;;;;1.00;1.00;;;;;20.73;16.74;97573.44;4967024;28;8805;-50
2021/05/05 03:23:46;;;;;;;;;2.00;2.00;;;;;20.73;16.58;97559.75;4957690;28;8864;-50
2021/05/05 03:26:12;;;;;;;;;2.00;2.00;;;;;20.73;16.54;97573.44;4958782;28;8766;-50
2021/05/05 03:28:37;;;;;;;;;2.00;2.00;;;;;20.75;16.74;97570.31;4966466;28;8806;-50
2021/05/05 03:31:03;;;;;;;;;2.00;2.00;;;;;20.74;16.47;97558.59;4985127;28;11280;-51
2021/05/05 03:33:28;;;;;;;;;1.00;1.00;;;;;20.73;16.50;97573.44;4971097;28;8803;-50
2021/05/05 03:35:53;;;;;;;;;2.00;2.00;;;;;20.74;16.56;97558.59;4983798;28;9550;-48
2021/05/05 03:38:19;;;;;;;;;1.00;1.00;;;;;20.73;16.51;97576.19;4972292;28;8812;-47
2021/05/05 03:40:44;;;;;;;;;2.00;2.00;;;;;20.74;16.51;97549.59;4961939;28;8765;-48
2021/05/05 03:43:10;;;;;;;;;1.50;1.50;;;;;20.76;16.42;97555.47;4960931;28;8801;-48
2021/05/05 03:45:35;;;;;;;;;2.00;2.00;;;;;20.74;16.37;97549.59;4961547;28;8907;-47
2021/05/05 03:48:00;;;;;;;;;2.00;2.00;;;;;20.76;16.44;97553.50;4959178;28;8804;-47
2021/05/05 03:50:26;;;;;;;;;1.75;1.75;;;;;20.74;16.41;97550.38;4971742;28;8906;-50
2021/05/05 03:52:52;;;;;;;;;2.00;2.00;;;;;20.74;16.32;97560.53;4978522;28;8832;-50
2021/05/05 03:55:18;;;;;;;;;1.00;1.00;;;;;20.74;16.17;97553.09;4965825;28;8833;-50
2021/05/05 03:57:43;;;;;;;;;1.20;1.20;;;;;20.71;16.38;97540.16;4963152;28;11601;-49
2021/05/05 04:00:10;;;;;;;;;1.00;1.00;;;;;20.75;16.31;97548.41;4979760;28;8791;-50
2021/05/05 04:02:35;;;;;;;;;2.00;2.00;;;;;20.77;16.25;97546.84;4969250;28;8878;-50
2021/05/05 04:05:02;;;;;;;;;2.00;2.00;;;;;20.78;16.10;97542.94;4962143;28;8932;-50
2021/05/05 04:07:27;;;;;;;;;2.00;2.00;;;;;20.77;16.37;97551.53;4956891;28;9065;-49
2021/05/05 04:09:52;;;;;;;;;2.00;2.00;;;;;20.78;16.30;97539.41;4971357;28;9042;-50
2021/05/05 04:12:18;;;;;;;;;1.00;1.00;;;;;20.75;16.37;97535.47;4982504;28;8838;-50
2021/05/05 04:14:43;;;;;;;;;1.50;1.50;;;;;20.79;16.14;97530.00;4976086;28;8799;-50
2021/05/05 04:17:09;;;;;;;;;1.00;1.00;;;;;20.80;16.19;97537.06;4982801;28;8787;-50
2021/05/05 04:19:37;;;;;;;;;1.75;1.75;;;;;20.80;15.99;97534.31;4983372;28;9523;-49
2021/05/05 04:22:03;;;;;;;;;2.00;2.00;;;;;20.81;15.92;97535.91;4981431;28;11523;-49
2021/05/05 04:24:28;;;;;;;;;2.00;2.00;;;;;20.77;16.06;97535.09;4982671;28;8794;-50
2021/05/05 04:26:54;;;;;;;;;2.00;2.00;;;;;20.79;16.17;97532.75;4979648;28;8809;-50
2021/05/05 04:29:20;;;;;;;;;1.40;1.40;;;;;20.79;16.00;97527.25;4974819;28;8787;-50
2021/05/05 04:31:51;;;;;;;;;1.60;1.60;;;;;20.79;15.99;97539.03;4983196;28;8785;-50
2021/05/05 04:34:18;;;;;;;;;1.40;1.40;;;;;20.75;16.17;97532.75;4982958;28;8948;-48
2021/05/05 04:36:43;;;;;;;;;2.00;2.00;;;;;20.78;15.96;97521.00;4979997;28;8835;-47
2021/05/05 04:39:08;;;;;;;;;2.00;2.00;;;;;20.78;15.96;97534.72;4975943;28;8777;-48
2021/05/05 04:41:34;;;;;;;;;1.50;1.50;;;;;20.79;15.87;97530.81;4965999;28;8911;-48
2021/05/05 04:44:00;;;;;;;;;1.00;1.00;;;;;20.78;16.02;97525.72;4963977;28;8790;-48
2021/05/05 04:46:25;;;;;;;;;2.00;2.00;;;;;20.78;15.93;97525.72;4975194;28;8835;-47
2021/05/05 04:48:51;;;;;;;;;2.00;2.00;;;;;20.78;15.98;97522.97;4974306;28;8786;-48
2021/05/05 04:51:16;;;;;;;;;2.00;2.00;;;;;20.78;15.98;97518.28;4958474;28;8841;-47
2021/05/05 04:53:41;;;;;;;;;2.00;2.00;;;;;20.76;15.97;97523.34;4967693;28;8819;-47
2021/05/05 04:56:07;;;;;;;;;2.00;2.00;;;;;20.76;15.95;97519.84;4973774;28;8807;-48
2021/05/05 04:58:32;;;;;;;;;1.00;1.00;;;;;20.78;16.22;97522.97;4967479;28;8795;-47
2021/05/05 05:00:58;;;;;;;;;1.00;1.00;;;;;20.78;16.10;97503.78;4974991;28;8896;-48
2021/05/05 05:03:23;;;;;;;;;1.50;1.25;;;;;20.77;15.81;97508.50;4957245;28;8891;-48
2021/05/05 05:05:48;;;;;;;;;2.00;2.00;;;;;20.79;15.89;97505.34;4973386;28;8849;-48
2021/05/05 05:08:14;;;;;;;;;2.00;2.00;;;;;20.77;15.81;97502.22;4954424;28;9827;-47
2021/05/05 05:10:39;;;;;;;;;2.00;2.00;;;;;20.76;15.97;97509.66;4962091;28;8763;-47
2021/05/05 05:13:05;;;;;;;;;2.00;2.00;;;;;20.77;15.92;97503.03;4977012;28;9582;-47
2021/05/05 05:15:30;;;;;;;;;2.00;2.00;;;;;20.74;15.82;97509.28;4973830;28;9588;-47
2021/05/05 05:17:56;;;;;;;;;2.00;2.00;;;;;20.77;15.88;97504.97;4963154;28;9551;-48
2021/05/05 05:20:21;;;;;;;;;2.00;2.00;;;;;20.76;15.94;97495.97;4967892;28;8802;-47
2021/05/05 05:22:47;;;;;;;;;2.25;2.00;;;;;20.77;15.82;97499.47;4972916;28;9536;-47
2021/05/05 05:25:12;;;;;;;;;1.00;1.00;;;;;20.77;15.92;97503.03;4961970;28;8809;-48
2021/05/05 05:27:38;;;;;;;;;1.00;1.00;;;;;20.77;15.88;97508.50;4976472;28;8814;-47
2021/05/05 05:30:06;;;;;;;;;1.00;1.00;;;;;20.77;15.94;97491.25;4963516;28;8797;-47
2021/05/05 05:32:31;;;;;;;;;2.00;2.00;;;;;20.77;15.95;97496.75;4971430;28;8791;-47
2021/05/05 05:34:57;;;;;;;;;2.00;2.00;;;;;20.77;15.88;97497.53;4981720;28;8781;-47
2021/05/05 05:37:22;;;;;;;;;1.50;1.50;;;;;20.78;15.72;97501.06;4983509;28;9563;-47
2021/05/05 05:39:47;;;;;;;;;1.25;1.25;;;;;20.76;15.83;97506.16;4964713;28;8805;-48
2021/05/05 05:42:13;;;;;;;;;1.00;1.00;;;;;20.76;15.93;97501.44;4963811;28;8928;-47
2021/05/05 05:44:38;;;;;;;;;1.50;1.50;;;;;20.78;15.70;97495.56;4974664;28;9860;-47
2021/05/05 05:47:03;;;;;;;;;2.00;2.00;;;;;20.79;15.70;97506.16;4984340;28;8782;-48
2021/05/05 05:49:29;;;;;;;;;2.00;1.00;;;;;20.77;15.67;97502.22;4985720;28;8822;-47
2021/05/05 05:51:54;;;;;;;;;2.00;2.00;;;;;20.80;15.80;97504.19;4980952;28;8839;-48
2021/05/05 05:54:20;;;;;;;;;2.00;2.00;;;;;20.78;15.77;97510.06;4985666;28;8874;-48
2021/05/05 05:56:45;;;;;;;;;1.50;1.50;;;;;20.77;15.72;97511.25;4983991;28;8795;-48
2021/05/05 05:59:10;;;;;;;;;2.00;2.00;;;;;20.77;15.92;97497.53;4984812;28;8798;-47
2021/05/05 06:01:35;;;;;;;;;2.00;2.00;;;;;20.77;15.74;97524.13;4980535;28;8872;-48
2021/05/05 06:04:01;;;;;;;;;1.75;1.75;;;;;20.76;15.79;97528.84;4986834;28;9524;-48
2021/05/05 06:06:26;;;;;;;;;1.50;1.50;;;;;20.77;15.65;97519.47;4977741;28;8822;-47
2021/05/05 06:08:51;;;;;;;;;2.00;2.00;;;;;20.80;15.65;97495.97;4983252;28;9368;-47
2021/05/05 06:11:17;;;;;;;;;2.75;2.00;;;;;20.80;15.65;97537.06;4973605;28;8805;-48
2021/05/05 06:13:42;;;;;;;;;2.00;2.00;;;;;20.77;15.86;97535.91;4951922;28;8771;-47
2021/05/05 06:16:07;;;;;;;;;1.00;1.00;;;;;20.74;15.72;97506.53;4964811;28;8875;-47
2021/05/05 06:18:33;;;;;;;;;1.25;1.25;;;;;20.78;15.91;97529.22;4963136;28;8817;-47
2021/05/05 06:20:59;;;;;;;;;1.75;1.75;;;;;20.76;15.86;97533.53;4977042;28;8913;-47
2021/05/05 06:23:25;;;;;;;;;2.00;2.00;;;;;20.78;15.72;97531.19;4982140;28;8810;-48
2021/05/05 06:25:50;;;;;;;;;1.00;1.00;;;;;20.87;16.05;97512.41;4978170;28;8819;-48
2021/05/05 06:28:15;;;;;;;;;1.00;1.00;;;;;20.94;16.78;97523.38;4974861;28;8874;-47
2021/05/05 06:30:41;;;;;;;;;1.75;1.75;;;;;20.87;17.47;97534.34;4977131;28;8799;-48
2021/05/05 06:33:06;;;;;;;;;2.00;2.00;;;;;20.85;18.20;97522.22;4964963;28;9572;-48
2021/05/05 06:35:31;;;;;;;;;2.00;2.00;;;;;20.77;18.39;97526.88;4971406;28;9665;-48
2021/05/05 06:37:57;;;;;;;;;2.50;2.50;;;;;20.66;19.15;97509.63;4971684;28;8876;-48
2021/05/05 06:40:22;;;;;;;;;2.00;2.00;;;;;20.60;19.42;97528.38;4961511;28;8778;-48
2021/05/05 06:42:48;;;;;;;;;1.00;1.00;;;;;20.51;19.64;97531.47;4958862;28;8833;-48
2021/05/05 06:45:14;;;;;;;;;2.00;2.00;;;;;20.47;20.09;97527.16;4960930;28;8864;-48
2021/05/05 06:47:40;;;;;;;;;2.00;2.00;;;;;20.39;20.09;97526.34;4966135;28;8831;-50
2021/05/05 06:50:08;;;;;;;;;2.00;2.00;;;;;20.36;20.25;97519.66;4973487;28;8809;-46
2021/05/05 06:52:33;;;;;;;;;2.00;2.00;;;;;20.15;20.64;97530.53;4963632;28;8884;-49
2021/05/05 06:54:58;;;;;;;;;2.75;2.00;;;;;20.42;19.65;97526.34;4981694;28;8826;-50
2021/05/05 06:57:24;;;;;;;;;2.25;2.25;;;;;20.57;18.98;97526.41;4979516;28;8819;-50
2021/05/05 06:59:49;;;;;;;;;2.00;2.00;;;;;20.59;18.50;97535.00;4979991;28;8787;-50
2021/05/05 07:02:15;;;;;;;;;2.00;2.00;;;;;20.56;18.34;97528.38;4977377;28;8831;-51
2021/05/05 07:04:40;;;;;;;;;1.00;1.00;;;;;20.52;17.98;97496.66;4978256;28;8767;-50
2021/05/05 07:07:05;;;;;;;;;1.50;1.25;;;;;20.52;17.90;97516.59;4983658;28;8803;-49
2021/05/05 07:09:31;;;;;;;;;1.75;1.75;;;;;20.46;17.68;97514.66;4979954;28;8837;-49
2021/05/05 07:11:56;;;;;;;;;2.25;2.25;;;;;20.47;17.57;97511.50;4976944;28;9523;-49
2021/05/05 07:14:21;;;;;;;;;2.00;2.00;;;;;20.47;17.43;97507.97;4971077;28;8908;-50
2021/05/05 07:16:47;;;;;;;;;2.00;2.00;;;;;20.49;17.07;97519.31;4958798;28;8818;-49
2021/05/05 07:19:12;;;;;;;;;2.00;2.00;;;;;20.49;17.20;97514.66;4959296;28;8817;-49
2021/05/05 07:21:38;;;;;;;;;2.00;2.00;;;;;20.50;17.23;97513.47;4974831;28;8797;-49
2021/05/05 07:24:03;;;;;;;;;1.00;1.00;;;;;20.48;16.83;97518.56;4980798;28;8884;-50
2021/05/05 07:26:28;;;;;;;;;2.00;2.00;;;;;20.50;16.85;97521.69;4968582;28;8831;-49
2021/05/05 07:28:55;;;;;;;;;2.00;2.00;;;;;20.53;16.71;97509.97;4960084;28;8789;-49
2021/05/05 07:31:21;;;;;;;;;2.00;2.00;;;;;20.57;16.76;97510.75;4959767;28;8789;-50
2021/05/05 07:33:49;;;;;;;;;1.50;1.50;;;;;20.59;16.66;97513.88;4978645;28;8823;-50
2021/05/05 07:36:17;;;;;;;;;2.00;2.00;;;;;20.58;16.71;97523.28;4959525;28;8823;-47
2021/05/05 07:49:13;;;;;;;;;1.20;1.20;;;;;20.62;16.50;97526.06;4979991;28;8921;-49
2021/05/05 07:51:38;;;;;;;;;1.60;1.60;;;;;20.65;16.25;97522.56;4960489;28;8777;-47
2021/05/05 07:54:04;;;;;;;;;1.75;1.75;;;;;20.66;16.47;97515.88;4972105;28;9602;-46
2021/05/05 07:56:30;;;;;;;;;2.00;1.00;;;;;20.67;16.25;97519.41;4964617;28;8885;-45
2021/05/05 07:59:00;;;;;;;;;1.25;1.25;;;;;20.67;16.26;97533.09;4964675;28;8802;-48
2021/05/05 08:01:26;;;;;;;;;1.80;1.80;;;;;20.67;16.48;97524.88;4976395;28;8801;-48
2021/05/05 08:03:51;;;;;;;;;1.50;1.50;;;;;20.69;16.22;97531.56;4961081;28;9239;-48
2021/05/05 08:06:16;;;;;;;;;2.00;2.00;;;;;20.71;16.11;97540.16;4959291;28;9642;-45
2021/05/05 08:08:42;;;;;;;;;1.50;1.50;;;;;20.71;16.03;97539.41;4953239;28;8817;-48
2021/05/05 08:11:07;;;;;;;;;1.25;1.25;;;;;20.73;16.10;97537.03;4967167;28;8851;-46
2021/05/05 08:13:33;;;;;;;;;2.00;2.00;;;;;20.73;16.03;97535.09;4975487;28;8799;-46
2021/05/05 08:15:58;;;;;;;;;1.00;1.00;;;;;20.74;16.14;97542.16;4975722;28;8823;-49
2021/05/05 08:18:23;;;;;;;;;1.25;1.25;;;;;20.72;16.25;97538.22;4961969;28;8868;-47
2021/05/05 08:20:50;;;;;;;;;2.00;2.00;;;;;20.72;15.99;97539.00;4983112;28;8793;-45
2021/05/05 08:23:16;;;;;;;;;2.00;2.00;;;;;20.76;16.17;97548.00;4978693;28;8928;-46
2021/05/05 08:25:43;;;;;;;;;2.00;2.00;;;;;20.77;15.72;97544.13;4961612;28;8899;-47
2021/05/05 08:28:09;;;;;;;;;2.00;2.00;;;;;20.76;15.94;97539.78;4959895;28;8842;-46
2021/05/05 08:30:35;;;;;;;;;1.20;1.20;;;;;20.76;16.00;97537.06;4957792;28;8786;-47
2021/05/05 08:33:01;;;;;;;;;2.00;2.00;;;;;20.79;15.99;97550.00;4958447;28;8863;-46
2021/05/05 08:35:26;;;;;;;;;2.00;2.00;;;;;20.79;16.07;97541.78;4959633;28;8911;-47
2021/05/05 08:37:52;;;;;;;;;2.00;2.00;;;;;20.78;16.07;97539.41;4961979;28;8829;-46
2021/05/05 08:40:19;;;;;;;;;2.00;2.00;;;;;20.79;16.07;97540.97;4977670;28;9589;-47
2021/05/05 08:42:45;;;;;;;;;1.80;1.80;;;;;20.79;15.91;97536.28;4974395;28;8847;-46
2021/05/05 08:45:17;;;;;;;;;1.25;1.25;;;;;20.83;15.83;97541.78;4981237;28;8935;-47
2021/05/05 08:47:48;;;;;;;;;2.00;2.00;;;;;20.83;15.90;97535.53;4982019;28;11510;-48
2021/05/05 08:50:16;;;;;;;;;2.40;2.40;;;;;20.84;15.69;97537.06;4972614;28;8833;-47
2021/05/05 08:52:42;;;;;;;;;2.20;2.00;;;;;20.84;15.80;97534.34;4965518;28;8759;-46
2021/05/05 08:55:10;;;;;;;;;2.00;2.00;;;;;20.84;16.00;97535.09;4984565;28;8822;-46
2021/05/05 08:57:35;;;;;;;;;1.80;1.80;;;;;20.85;15.77;97541.41;4981636;28;8814;-48
2021/05/05 09:00:04;;;;;;;;;2.00;2.00;;;;;20.87;15.67;97545.31;4969017;28;9628;-46
2021/05/05 09:02:30;;;;;;;;;2.00;2.00;;;;;20.86;15.92;97553.91;4974532;28;8945;-46
2021/05/05 09:05:07;;;;;;;;;1.00;1.00;;;;;20.87;15.91;97547.25;4976221;28;8781;-47
2021/05/05 09:07:35;;;;;;;;;2.00;2.00;;;;;20.87;15.83;97541.78;4962839;28;8777;-46
2021/05/05 09:10:12;;;;;;;;;2.40;2.40;;;;;20.86;16.01;97549.22;4966153;28;8817;-47
2021/05/05 09:12:39;;;;;;;;;2.00;2.00;;;;;20.86;15.86;97546.50;4979533;28;8811;-46
2021/05/05 09:15:18;;;;;;;;;2.20;2.00;;;;;20.86;16.04;97542.94;4978497;28;8818;-46
2021/05/05 09:17:49;;;;;;;;;1.00;1.00;;;;;20.88;15.83;97551.56;4955516;28;8900;-46
2021/05/05 09:20:18;;;;;;;;;2.00;2.00;;;;;20.85;15.80;97549.63;4970212;28;8822;-48
2021/05/05 09:22:49;;;;;;;;;2.00;1.40;;;;;20.86;15.99;97548.44;4979500;28;8913;-49
2021/05/05 09:25:35;;;;;;;;;2.00;2.00;;;;;20.84;15.92;97551.56;4983216;28;8953;-46
2021/05/05 09:28:14;;;;;;;;;2.00;2.00;;;;;20.86;15.93;97559.38;4977721;28;13629;-49
2021/05/05 09:30:50;;;;;;;;;2.00;2.00;;;;;20.86;15.97;97556.66;4959746;28;8786;-46
2021/05/05 09:33:32;;;;;;;;;2.00;2.00;;;;;20.88;15.96;97559.78;4963352;28;8924;-49
2021/05/05 09:36:02;;;;;;;;;2.00;2.00;;;;;20.86;15.78;97562.94;4959613;28;8868;-45
2021/05/05 09:38:49;;;;;;;;;2.00;2.00;;;;;20.87;16.12;97560.97;4956863;28;8785;-46
2021/05/05 09:41:25;;;;;;;;;1.00;1.00;;;;;20.88;16.04;97576.22;4962194;28;8794;-46
2021/05/05 09:43:51;;;;;;;;;2.00;2.00;;;;;20.87;16.03;97566.44;4965369;28;8755;-47
2021/05/05 09:46:45;;;;;;;;;2.00;2.00;;;;;20.87;16.05;97571.94;4982341;28;8807;-46
2021/05/05 09:49:26;;;;;;;;;2.00;2.00;;;;;20.88;15.88;97574.28;4977418;28;8795;-47
2021/05/05 09:52:12;;;;;;;;;2.80;2.80;;;;;20.88;16.00;97568.81;4981274;28;8937;-46
2021/05/05 09:55:02;;;;;;;;;2.00;2.00;;;;;20.86;16.15;97578.56;4977741;28;8858;-47
2021/05/05 09:57:36;;;;;;;;;2.80;2.80;;;;;20.86;16.14;97581.31;4980511;28;8881;-47
2021/05/05 10:00:16;;;;;;;;;1.20;1.20;;;;;20.91;15.91;97568.00;4982711;28;8787;-46
2021/05/05 10:02:46;;;;;;;;;1.80;1.80;;;;;20.89;15.94;97581.31;4981081;28;8779;-46
2021/05/05 10:05:21;;;;;;;;;1.60;1.60;;;;;20.88;16.00;97587.19;4973303;28;8789;-47
2021/05/05 10:07:54;;;;;;;;;2.00;2.00;;;;;20.88;16.06;97578.97;4965983;28;8782;-46
2021/05/05 10:10:21;;;;;;;;;2.00;2.00;;;;;20.90;15.98;97576.63;4981522;28;8814;-46
2021/05/05 10:12:48;;;;;;;;;2.00;2.00;;;;;20.88;15.87;97578.97;4961578;28;8954;-47
2021/05/05 10:15:15;;;;;;;;;2.00;2.00;;;;;20.89;15.94;97569.56;4961603;28;8816;-48
2021/05/05 10:17:44;;;;;;;;;2.00;2.00;;;;;20.92;16.05;97571.56;4964217;28;8821;-46
2021/05/05 10:20:10;;;;;;;;;2.00;2.00;;;;;20.94;15.87;97572.72;4964904;28;8780;-47
2021/05/05 10:22:36;;;;;;;;;2.00;2.00;;;;;20.93;15.97;97570.34;4958677;28;8792;-46
2021/05/05 10:25:02;;;;;;;;;1.60;1.60;;;;;20.90;15.92;97571.94;4967788;28;8801;-47
2021/05/05 10:27:28;;;;;;;;;1.00;1.00;;;;;20.88;15.86;97570.72;4981625;28;8810;-46
2021/05/05 10:29:55;;;;;;;;;2.00;2.00;;;;;20.89;16.08;97580.53;4981711;28;8835;-47
2021/05/05 10:32:21;;;;;;;;;2.00;2.00;;;;;20.91;16.08;97589.16;4980875;28;8793;-47
2021/05/05 10:34:51;;;;;;;;;2.00;2.00;;;;;20.89;15.99;97577.81;4985245;28;8809;-47
2021/05/05 10:37:17;;;;;;;;;1.60;1.60;;;;;20.91;15.95;97591.91;4982619;28;8852;-46
2021/05/05 10:39:44;;;;;;;;;1.40;1.40;;;;;20.90;16.05;97576.63;4962844;28;8805;-47
2021/05/05 10:42:17;;;;;;;;;2.00;2.00;;;;;20.90;15.85;97584.84;4963924;28;8820;-46
2021/05/05 10:44:52;;;;;;;;;1.00;1.00;;;;;20.92;15.97;97588.00;4962731;28;8933;-46
2021/05/05 10:47:30;;;;;;;;;2.80;2.80;;;;;20.92;15.89;97585.25;4970365;28;8798;-46
2021/05/05 10:49:59;;;;;;;;;2.00;2.00;;;;;20.93;15.98;97589.53;4978221;28;10441;-46
2021/05/05 10:52:26;;;;;;;;;2.60;2.60;;;;;20.96;15.87;97594.25;4964579;28;8813;-46
2021/05/05 10:54:56;;;;;;;;;1.60;1.60;;;;;20.98;15.84;97598.19;4977085;28;8852;-46
2021/05/05 10:57:23;;;;;;;;;2.00;2.00;;;;;21.08;16.45;97610.34;4977107;28;8865;-47
2021/05/05 10:59:58;;;;;;;;;2.00;2.00;;;;;21.08;17.56;97602.13;4975716;28;8785;-47
2021/05/05 11:02:38;;;;;;;;;1.60;1.60;;;;;21.02;18.38;97603.69;4969563;28;8825;-48
2021/05/05 11:05:06;;;;;;;;;2.00;2.00;;;;;20.94;18.82;97593.88;4964865;28;8835;-48
2021/05/05 11:07:49;;;;;;;;;2.60;2.60;;;;;20.83;19.36;97612.25;4978678;28;8822;-46
2021/05/05 11:10:33;;;;;;;;;2.00;2.00;;;;;20.76;19.66;97600.06;4979378;28;8798;-47
2021/05/05 11:12:59;;;;;;;;;2.00;2.00;;;;;20.71;19.87;97603.19;4978846;28;8977;-46
2021/05/05 11:15:43;;;;;;;;;1.60;1.60;;;;;20.64;19.92;97619.59;4982435;28;8973;-46
2021/05/05 11:21:08;;;;;;;;;2.00;2.00;;;;;20.61;19.79;97604.72;4970199;28;8795;-46
2021/05/05 11:23:44;;;;;;;;;2.00;2.00;;;;;20.71;19.18;97614.13;4983037;28;8807;-47
2021/05/05 11:26:21;;;;;;;;;2.00;2.00;;;;;20.76;18.67;97611.03;4978873;28;8788;-46
2021/05/05 11:29:11;;;;;;;;;2.00;2.00;;;;;20.76;18.43;97611.03;4980857;28;8801;-46
2021/05/05 11:31:46;;;;;;;;;2.00;2.00;;;;;20.69;18.14;97616.47;4979637;28;8822;-47
2021/05/05 11:34:32;;;;;;;;;2.00;2.00;;;;;20.65;18.10;97631.31;4982066;28;8806;-48
2021/05/05 11:36:58;;;;;;;;;1.20;1.00;;;;;20.61;18.04;97620.31;4980984;28;9563;-47
2021/05/05 11:39:26;;;;;;;;;1.50;1.50;;;;;20.58;17.63;97630.09;4978474;28;8803;-47
2021/05/05 11:41:55;;;;;;;;;2.00;2.00;;;;;20.62;17.45;97627.41;4975943;28;8802;-46
2021/05/05 11:44:42;;;;;;;;;2.00;2.00;;;;;20.61;17.39;97620.31;4969739;28;8788;-50
2021/05/05 11:47:10;;;;;;;;;2.00;2.00;;;;;20.63;17.21;97622.72;4964232;28;8896;-47
2021/05/05 11:49:39;;;;;;;;;2.00;2.00;;;;;20.61;17.21;97615.69;4980823;28;8906;-46
2021/05/05 11:52:27;;;;;;;;;2.40;2.40;;;;;20.64;17.28;97624.28;4976404;28;9695;-46
2021/05/05 11:54:56;;;;;;;;;2.00;2.00;;;;;20.64;16.96;97633.28;4978716;28;8905;-46
2021/05/05 11:57:24;;;;;;;;;1.80;1.80;;;;;20.66;17.08;97630.16;4977631;28;9224;-47